Time;durP1;ratioP1;P1;durP2;ratioP2;P2;SDS_P1;SDS_P2;PMS_P1;PMS_P2;Temp;Humidity;BMP_temperature;BMP_pressure;BME280_temperature;BME280_humidity;BME280_pressure;Samples;Min_cycle;Max_cycle;Signal;HPM_P1;HPM_P2
2021/10/19 00:00:29;;;;;;;4.70;4.35;;;16.50;85.30;;;;;;5009056;28;20037;-82
2021/10/19 00:02:55;;;;;;;5.07;4.68;;;16.50;85.30;;;;;;5005459;28;20042;-82
2021/10/19 00:05:21;;;;;;;4.80;4.40;;;16.50;85.30;;;;;;4989947;28;20041;-81
2021/10/19 00:07:47;;;;;;;5.15;4.75;;;16.50;85.30;;;;;;4988323;28;20046;-83
2021/10/19 00:10:14;;;;;;;4.93;4.53;;;16.50;85.40;;;;;;4989622;28;20030;-83
2021/10/19 00:12:41;;;;;;;4.72;4.32;;;16.50;85.40;;;;;;5004141;28;20041;-80
2021/10/19 00:15:09;;;;;;;4.85;4.55;;;16.50;85.40;;;;;;5004326;28;20052;-85
2021/10/19 00:17:36;;;;;;;4.50;4.20;;;16.50;85.40;;;;;;4988008;28;20401;-83
2021/10/19 00:20:04;;;;;;;5.15;4.65;;;16.50;85.40;;;;;;5003966;28;20030;-83
2021/10/19 00:22:30;;;;;;;4.88;4.47;;;16.50;85.40;;;;;;5003830;28;20041;-82
2021/10/19 00:24:56;;;;;;;4.55;4.15;;;16.50;85.40;;;;;;4993914;28;20034;-79
2021/10/19 00:27:22;;;;;;;5.43;4.97;;;16.50;85.40;;;;;;5007631;28;20148;-82
2021/10/19 00:29:48;;;;;;;4.80;4.40;;;16.50;85.40;;;;;;5007129;28;20112;-82
2021/10/19 00:32:14;;;;;;;5.22;4.82;;;16.50;85.40;;;;;;5008631;28;20481;-79
2021/10/19 00:34:40;;;;;;;5.20;4.80;;;16.50;85.40;;;;;;4992749;28;21062;-82
2021/10/19 00:37:06;;;;;;;4.50;4.10;;;16.50;85.40;;;;;;4971603;28;20393;-84
2021/10/19 00:39:32;;;;;;;5.07;4.68;;;16.50;85.40;;;;;;5003565;28;20117;-79
2021/10/19 00:41:58;;;;;;;4.78;4.38;;;16.50;85.40;;;;;;4989126;28;20188;-80
2021/10/19 00:44:24;;;;;;;4.95;4.53;;;16.50;85.40;;;;;;4988864;28;20026;-79
2021/10/19 00:46:50;;;;;;;4.97;4.57;;;16.50;85.50;;;;;;4987136;28;20490;-80
2021/10/19 00:49:15;;;;;;;4.72;4.25;;;16.50;85.40;;;;;;4999537;28;20397;-80
2021/10/19 00:51:42;;;;;;;4.20;3.88;;;16.50;85.50;;;;;;5007996;28;20032;-80
2021/10/19 00:54:08;;;;;;;3.83;3.53;;;16.60;85.60;;;;;;4994654;28;20027;-78
2021/10/19 00:56:38;;;;;;;4.28;3.92;;;16.50;85.50;;;;;;5007277;28;20543;-79
2021/10/19 00:59:07;;;;;;;4.85;4.43;;;16.50;85.50;;;;;;4998362;28;20398;-81
2021/10/19 01:01:34;;;;;;;4.30;3.92;;;16.60;85.70;;;;;;4988490;28;20037;-82
2021/10/19 01:04:00;;;;;;;4.40;4.10;;;16.60;85.70;;;;;;4988679;28;20393;-78
2021/10/19 01:06:27;;;;;;;4.82;4.43;;;16.60;85.70;;;;;;4987796;28;20545;-80
2021/10/19 01:08:53;;;;;;;4.75;4.30;;;16.60;85.70;;;;;;4988153;28;20070;-79
2021/10/19 01:11:19;;;;;;;4.60;4.30;;;16.60;85.70;;;;;;4988378;28;20026;-82
2021/10/19 01:13:45;;;;;;;3.72;3.42;;;16.60;85.70;;;;;;4988108;28;20038;-78
2021/10/19 01:16:12;;;;;;;4.32;4.03;;;16.60;85.60;;;;;;4986470;28;20457;-79
2021/10/19 01:18:39;;;;;;;4.30;4.00;;;16.60;85.70;;;;;;5008399;28;20034;-78
2021/10/19 01:21:07;;;;;;;5.10;3.88;;;16.60;85.70;;;;;;5007812;28;20042;-77
2021/10/19 01:23:34;;;;;;;4.40;3.65;;;16.60;85.70;;;;;;5000700;28;20066;-79
2021/10/19 01:26:03;;;;;;;3.53;3.22;;;16.60;85.60;;;;;;5002542;28;20036;-81
2021/10/19 01:28:30;;;;;;;3.72;3.42;;;16.70;85.80;;;;;;5002578;28;20038;-81
2021/10/19 01:30:59;;;;;;;5.15;4.75;;;16.70;85.80;;;;;;4988526;28;20030;-81
2021/10/19 01:33:25;;;;;;;4.47;4.07;;;16.60;85.60;;;;;;4989617;28;20371;-80
2021/10/19 01:35:52;;;;;;;3.78;3.45;;;16.60;85.70;;;;;;4989541;28;20061;-80
2021/10/19 01:38:21;;;;;;;4.15;3.83;;;16.60;85.70;;;;;;4991658;28;20048;-80
2021/10/19 01:40:47;;;;;;;3.38;3.10;;;16.70;85.80;;;;;;5008879;28;20030;-80
2021/10/19 01:43:17;;;;;;;5.13;4.70;;;16.70;85.80;;;;;;5009310;28;20080;-79
2021/10/19 01:45:46;;;;;;;3.83;3.58;;;16.60;85.70;;;;;;5003617;28;20041;-83
2021/10/19 01:48:13;;;;;;;4.45;3.10;;;16.70;85.90;;;;;;5007215;28;20077;-82
2021/10/19 01:50:39;;;;;;;3.25;3.05;;;16.70;85.90;;;;;;4992239;28;20058;-82
2021/10/19 01:53:07;;;;;;;3.30;3.10;;;16.60;85.80;;;;;;5007509;28;20042;-82
2021/10/19 01:55:33;;;;;;;3.63;3.33;;;16.70;86.00;;;;;;5017547;28;20599;-82
2021/10/19 01:57:59;;;;;;;3.08;2.75;;;16.70;86.00;;;;;;5011779;28;20026;-81
2021/10/19 02:00:25;;;;;;;3.42;3.20;;;16.70;86.00;;;;;;5011319;28;20532;-81
2021/10/19 02:02:52;;;;;;;3.35;3.13;;;16.70;86.00;;;;;;5010320;28;20089;-84
2021/10/19 02:05:18;;;;;;;3.47;3.17;;;16.70;86.00;;;;;;5011482;28;20026;-83
2021/10/19 02:07:44;;;;;;;3.25;2.75;;;16.70;86.00;;;;;;5012224;28;20064;-81
2021/10/19 02:10:12;;;;;;;3.30;3.10;;;16.70;86.00;;;;;;5011006;28;20217;-83
2021/10/19 02:12:38;;;;;;;3.17;2.88;;;16.70;86.00;;;;;;5011396;28;20497;-84
2021/10/19 02:15:06;;;;;;;2.83;2.63;;;16.80;86.20;;;;;;5026875;28;20038;-83
2021/10/19 02:17:32;;;;;;;3.38;3.13;;;16.80;86.20;;;;;;5009756;28;20038;-81
2021/10/19 02:20:01;;;;;;;2.65;2.45;;;16.80;86.20;;;;;;5011522;28;20127;-85
2021/10/19 02:22:28;;;;;;;2.50;2.30;;;16.80;86.20;;;;;;5011223;28;20057;-85
2021/10/19 02:24:55;;;;;;;2.70;2.50;;;16.80;86.20;;;;;;5011093;28;20033;-82
2021/10/19 02:27:21;;;;;;;4.07;3.30;;;16.80;86.10;;;;;;5011444;28;20374;-81
2021/10/19 02:29:47;;;;;;;2.60;2.40;;;16.80;86.10;;;;;;5010918;28;20088;-81
2021/10/19 02:32:14;;;;;;;2.40;2.30;;;16.80;86.20;;;;;;5026373;28;20077;-82
2021/10/19 02:34:40;;;;;;;2.88;2.67;;;16.80;86.20;;;;;;5026401;28;20037;-81
2021/10/19 02:37:05;;;;;;;2.75;2.55;;;16.80;86.20;;;;;;5011122;28;20046;-81
2021/10/19 02:39:32;;;;;;;2.70;2.50;;;16.80;86.20;;;;;;5010092;28;20026;-82
2021/10/19 02:41:58;;;;;;;2.60;2.40;;;16.80;86.20;;;;;;5026688;28;20397;-83
2021/10/19 02:44:24;;;;;;;2.83;2.63;;;16.80;86.20;;;;;;5012437;28;20030;-80
2021/10/19 02:46:50;;;;;;;2.97;2.47;;;16.80;86.20;;;;;;5013752;28;20468;-82
2021/10/19 02:49:16;;;;;;;2.40;2.22;;;16.80;86.20;;;;;;5014985;28;20037;-81
2021/10/19 02:51:42;;;;;;;2.63;2.42;;;16.80;86.20;;;;;;5013947;28;20040;-81
2021/10/19 02:54:10;;;;;;;2.38;2.17;;;16.80;86.20;;;;;;5030773;28;20030;-81
2021/10/19 02:56:37;;;;;;;2.80;2.60;;;16.90;86.40;;;;;;5013616;28;20366;-81
2021/10/19 02:59:04;;;;;;;2.35;2.08;;;16.80;86.20;;;;;;5014891;28;20484;-79
2021/10/19 03:01:30;;;;;;;2.47;2.33;;;16.80;86.20;;;;;;5014621;28;20030;-81
2021/10/19 03:03:57;;;;;;;2.22;2.03;;;16.90;86.40;;;;;;5015055;28;20034;-81
2021/10/19 03:06:23;;;;;;;3.33;2.25;;;16.90;86.40;;;;;;5014925;28;20477;-79
2021/10/19 03:08:49;;;;;;;2.65;2.45;;;16.90;86.40;;;;;;5014693;28;20068;-80
2021/10/19 03:11:15;;;;;;;3.15;2.47;;;16.90;86.40;;;;;;5014999;28;20120;-81
2021/10/19 03:13:41;;;;;;;2.40;2.20;;;16.90;86.40;;;;;;5029856;28;20029;-81
2021/10/19 03:16:07;;;;;;;2.42;2.22;;;16.90;86.40;;;;;;5012938;28;20088;-80
2021/10/19 03:18:33;;;;;;;2.10;1.90;;;16.90;86.40;;;;;;5014788;28;20034;-80
2021/10/19 03:20:59;;;;;;;2.78;2.58;;;16.90;86.40;;;;;;5014193;28;20088;-80
2021/10/19 03:23:25;;;;;;;2.20;2.05;;;16.90;86.40;;;;;;5013427;28;20034;-80
2021/10/19 03:25:50;;;;;;;2.25;2.15;;;16.90;86.40;;;;;;5014088;28;20038;-80
2021/10/19 03:28:17;;;;;;;2.10;1.90;;;16.90;86.40;;;;;;5012950;28;20029;-84
2021/10/19 03:30:42;;;;;;;2.05;1.85;;;16.90;86.50;;;;;;5014027;28;20030;-83
2021/10/19 03:33:09;;;;;;;2.55;2.03;;;16.90;86.40;;;;;;5014383;28;20033;-82
2021/10/19 03:35:35;;;;;;;2.15;1.88;;;17.00;86.50;;;;;;5012839;28;20036;-81
2021/10/19 03:38:01;;;;;;;2.30;2.10;;;16.90;86.40;;;;;;5014399;28;20112;-81
2021/10/19 03:40:27;;;;;;;2.30;2.10;;;16.90;86.40;;;;;;5012952;28;20061;-84
2021/10/19 03:42:53;;;;;;;2.67;2.47;;;17.00;86.50;;;;;;5029173;28;20041;-82
2021/10/19 03:45:19;;;;;;;6.13;2.75;;;17.00;86.50;;;;;;5014018;28;20038;-82
2021/10/19 03:47:46;;;;;;;3.33;1.88;;;16.90;86.40;;;;;;5013656;28;20045;-80
2021/10/19 03:50:13;;;;;;;2.42;2.22;;;17.00;86.60;;;;;;5008338;28;20038;-82
2021/10/19 03:52:39;;;;;;;2.63;2.42;;;17.00;86.60;;;;;;4994497;28;20030;-81
2021/10/19 03:55:07;;;;;;;1.95;1.75;;;16.90;86.40;;;;;;4999313;28;20358;-81
2021/10/19 03:57:33;;;;;;;2.33;2.13;;;16.90;86.40;;;;;;5012699;28;20044;-82
2021/10/19 03:59:59;;;;;;;1.95;1.85;;;16.90;86.40;;;;;;5014305;28;20037;-82
2021/10/19 04:02:26;;;;;;;1.80;1.70;;;17.00;86.60;;;;;;5013223;28;20034;-82
2021/10/19 04:04:52;;;;;;;2.40;2.20;;;17.00;86.60;;;;;;5029097;28;20363;-80
2021/10/19 04:07:18;;;;;;;2.47;2.28;;;17.00;86.60;;;;;;5013368;28;20026;-82
2021/10/19 04:09:44;;;;;;;3.38;2.28;;;17.00;86.60;;;;;;5013869;28;20430;-83
2021/10/19 04:12:10;;;;;;;2.20;2.00;;;17.00;86.60;;;;;;5013897;28;20037;-84
2021/10/19 04:14:36;;;;;;;2.78;2.50;;;17.00;86.50;;;;;;5013308;28;20053;-82
2021/10/19 04:17:02;;;;;;;2.13;2.00;;;17.00;86.50;;;;;;5013033;28;20616;-79
2021/10/19 04:19:28;;;;;;;2.85;2.65;;;17.00;86.50;;;;;;5013628;28;20034;-81
2021/10/19 04:21:54;;;;;;;2.58;2.35;;;17.00;86.50;;;;;;5013115;28;20433;-81
2021/10/19 04:24:20;;;;;;;2.50;2.30;;;17.00;86.50;;;;;;5028700;28;20026;-81
2021/10/19 04:26:46;;;;;;;2.15;1.95;;;17.00;86.60;;;;;;5011788;28;20481;-81
2021/10/19 04:29:13;;;;;;;2.88;2.55;;;17.10;86.70;;;;;;5013523;28;20040;-81
2021/10/19 04:31:39;;;;;;;2.47;2.28;;;17.10;86.70;;;;;;5012745;28;20033;-79
2021/10/19 04:34:06;;;;;;;2.63;2.42;;;17.10;86.70;;;;;;5013268;28;20033;-77
2021/10/19 04:36:33;;;;;;;2.60;2.40;;;17.10;86.70;;;;;;5011943;28;20042;-80
2021/10/19 04:38:59;;;;;;;2.50;2.30;;;17.10;86.70;;;;;;5011643;28;20033;-80
2021/10/19 04:41:26;;;;;;;3.22;2.95;;;17.10;86.70;;;;;;5012009;28;20034;-80
2021/10/19 04:43:52;;;;;;;2.95;2.67;;;17.10;86.80;;;;;;5011604;28;20025;-81
2021/10/19 04:46:18;;;;;;;2.90;2.38;;;17.10;86.70;;;;;;5012517;28;20041;-80
2021/10/19 04:48:44;;;;;;;2.42;2.22;;;17.10;86.70;;;;;;4994305;28;20045;-80
2021/10/19 04:51:10;;;;;;;2.78;2.58;;;17.10;86.70;;;;;;4990206;28;20034;-79
2021/10/19 04:53:37;;;;;;;3.58;2.25;;;17.10;86.80;;;;;;4990119;28;20117;-80
2021/10/19 04:56:04;;;;;;;2.80;2.60;;;17.20;86.90;;;;;;5004344;28;20045;-80
2021/10/19 04:58:30;;;;;;;2.58;2.38;;;17.20;86.90;;;;;;4998966;28;20042;-79
2021/10/19 05:00:56;;;;;;;2.25;2.05;;;17.20;86.90;;;;;;4989474;28;20224;-79
2021/10/19 05:03:22;;;;;;;2.50;2.30;;;17.20;86.90;;;;;;4967198;28;20550;-82
2021/10/19 05:05:49;;;;;;;2.75;2.55;;;17.20;87.00;;;;;;4967808;28;20482;-78
2021/10/19 05:08:15;;;;;;;2.30;2.15;;;17.20;86.90;;;;;;4976984;28;20038;-81
2021/10/19 05:10:43;;;;;;;2.97;2.42;;;17.20;86.90;;;;;;4988085;28;20028;-80
2021/10/19 05:13:10;;;;;;;2.42;2.22;;;17.20;87.00;;;;;;4986934;28;20041;-77
2021/10/19 05:15:36;;;;;;;2.28;2.03;;;17.20;86.90;;;;;;5003728;28;20039;-78
2021/10/19 05:18:02;;;;;;;2.63;2.40;;;17.20;86.90;;;;;;5003154;28;20085;-80
2021/10/19 05:20:28;;;;;;;3.60;2.10;;;17.20;86.90;;;;;;4989282;28;20065;-80
2021/10/19 05:22:56;;;;;;;2.45;2.22;;;17.20;86.90;;;;;;4996242;28;20037;-81
2021/10/19 05:25:23;;;;;;;2.28;2.08;;;17.20;86.90;;;;;;5011324;28;20109;-83
2021/10/19 05:27:49;;;;;;;2.10;1.90;;;17.20;86.90;;;;;;5001755;28;20031;-79
2021/10/19 05:30:17;;;;;;;1.80;1.70;;;17.20;86.90;;;;;;4988445;28;20413;-77
2021/10/19 05:32:43;;;;;;;2.63;2.42;;;17.20;86.90;;;;;;5002970;28;20037;-79
2021/10/19 05:35:10;;;;;;;2.83;2.55;;;17.20;86.90;;;;;;4989222;28;20395;-77
2021/10/19 05:37:36;;;;;;;2.22;2.00;;;17.30;87.10;;;;;;4990990;28;20050;-80
2021/10/19 05:40:05;;;;;;;2.03;1.88;;;17.20;87.00;;;;;;5023028;28;20049;-77
2021/10/19 05:42:31;;;;;;;2.38;2.00;;;17.20;87.00;;;;;;5002128;28;20030;-79
2021/10/19 05:44:57;;;;;;;2.45;2.25;;;17.20;86.90;;;;;;4986627;28;20034;-79
2021/10/19 05:47:23;;;;;;;1.70;1.60;;;17.30;87.10;;;;;;4988719;28;20069;-80
2021/10/19 05:49:49;;;;;;;2.40;2.05;;;17.30;87.10;;;;;;4987366;28;20035;-80
2021/10/19 05:52:15;;;;;;;2.60;2.00;;;17.30;87.20;;;;;;5003444;28;20042;-80
2021/10/19 05:54:41;;;;;;;1.98;1.88;;;17.30;87.10;;;;;;4986559;28;20473;-82
2021/10/19 05:57:07;;;;;;;2.45;2.17;;;17.30;87.10;;;;;;4989838;28;20057;-78
2021/10/19 05:59:33;;;;;;;1.98;1.80;;;17.40;87.30;;;;;;5004589;28;20363;-79
2021/10/19 06:01:59;;;;;;;2.25;2.08;;;17.40;87.30;;;;;;5007819;28;20034;-78
2021/10/19 06:04:27;;;;;;;1.90;1.80;;;17.40;87.30;;;;;;5022637;28;20381;-79
2021/10/19 06:06:59;;;;;;;2.70;2.00;;;17.40;87.30;;;;;;5007976;28;20037;-77
2021/10/19 06:09:25;;;;;;;2.72;2.33;;;17.40;87.40;;;;;;4996612;28;20093;-78
2021/10/19 06:11:53;;;;;;;2.25;2.05;;;17.40;87.30;;;;;;4988366;28;20026;-80
2021/10/19 06:14:19;;;;;;;2.22;2.03;;;17.40;87.30;;;;;;4990234;28;20030;-81
2021/10/19 06:16:46;;;;;;;1.80;1.70;;;17.40;87.30;;;;;;5012909;28;20507;-83
2021/10/19 06:19:12;;;;;;;2.20;2.00;;;17.40;87.30;;;;;;5013939;28;20090;-82
2021/10/19 06:21:42;;;;;;;3.35;2.22;;;17.40;87.30;;;;;;5018081;28;20429;-86
2021/10/19 06:24:09;;;;;;;2.38;2.13;;;17.40;87.30;;;;;;5000828;28;20080;-82
2021/10/19 06:26:36;;;;;;;3.15;1.98;;;17.40;87.30;;;;;;5017557;28;20501;-79
2021/10/19 06:29:04;;;;;;;1.88;1.77;;;17.50;87.40;;;;;;5024163;28;20235;-80
2021/10/19 06:31:30;;;;;;;2.38;2.17;;;17.40;87.30;;;;;;5024580;28;20628;-77
2021/10/19 06:33:56;;;;;;;2.78;2.40;;;17.40;87.30;;;;;;5010533;28;20038;-79
2021/10/19 06:36:22;;;;;;;2.10;1.90;;;17.40;87.30;;;;;;5005784;28;20117;-78
2021/10/19 06:38:48;;;;;;;3.30;2.80;;;17.50;87.50;;;;;;5023267;28;20053;-77
2021/10/19 06:41:14;;;;;;;2.58;2.38;;;17.50;87.50;;;;;;5005267;28;20081;-79
2021/10/19 06:43:40;;;;;;;3.65;2.85;;;17.40;87.30;;;;;;5002798;28;20039;-80
2021/10/19 06:46:06;;;;;;;4.00;2.30;;;17.50;87.50;;;;;;5001238;28;20060;-77
2021/10/19 06:48:32;;;;;;;2.60;2.40;;;17.40;87.30;;;;;;5003721;28;20054;-78
2021/10/19 06:50:58;;;;;;;2.53;2.30;;;17.50;87.50;;;;;;5002305;28;20505;-80
2021/10/19 06:53:24;;;;;;;3.92;2.47;;;17.50;87.40;;;;;;5001812;28;20022;-84
2021/10/19 06:55:50;;;;;;;3.50;2.42;;;17.50;87.40;;;;;;5012841;28;20097;-79
2021/10/19 06:58:16;;;;;;;3.47;3.17;;;17.50;87.40;;;;;;5000705;28;20077;-78
2021/10/19 07:00:42;;;;;;;3.97;2.75;;;17.50;87.40;;;;;;4994317;28;20073;-83
2021/10/19 07:03:09;;;;;;;3.85;3.00;;;17.60;87.60;;;;;;5006598;28;20041;-82
2021/10/19 07:05:35;;;;;;;4.45;3.10;;;17.50;87.50;;;;;;5000876;28;20030;-80
2021/10/19 07:08:02;;;;;;;4.78;3.83;;;17.60;87.60;;;;;;4995445;28;20050;-82
2021/10/19 07:10:28;;;;;;;3.60;3.30;;;17.60;87.60;;;;;;4997899;28;20560;-78
2021/10/19 07:12:54;;;;;;;4.10;3.63;;;17.60;87.60;;;;;;5004185;28;20938;-79
2021/10/19 07:15:20;;;;;;;5.65;4.05;;;17.60;87.60;;;;;;5016409;28;20030;-81
2021/10/19 07:17:47;;;;;;;4.20;3.80;;;17.70;87.80;;;;;;4998723;28;20061;-83
2021/10/19 07:20:13;;;;;;;4.10;3.33;;;17.70;87.70;;;;;;5001631;28;20026;-81
2021/10/19 07:22:39;;;;;;;5.20;3.63;;;17.70;87.70;;;;;;5015502;28;20552;-82
2021/10/19 07:25:08;;;;;;;5.20;4.38;;;17.70;87.70;;;;;;5022246;28;20026;-78
2021/10/19 07:27:34;;;;;;;5.57;4.90;;;17.80;88.30;;;;;;5019361;28;20037;-79
2021/10/19 07:30:00;;;;;;;5.72;5.13;;;17.80;87.70;;;;;;5018846;28;20097;-80
2021/10/19 07:32:26;;;;;;;5.18;4.07;;;17.80;87.70;;;;;;5006265;28;20080;-82
2021/10/19 07:34:53;;;;;;;5.70;5.07;;;17.80;87.60;;;;;;5037919;28;20469;-80
2021/10/19 07:37:19;;;;;;;6.63;5.25;;;17.80;87.60;;;;;;5023624;28;20038;-81
2021/10/19 07:39:45;;;;;;;7.75;5.65;;;17.90;87.70;;;;;;5022314;28;20021;-81
2021/10/19 07:42:12;;;;;;;7.05;5.78;;;17.90;87.70;;;;;;5022919;28;20397;-81
2021/10/19 07:44:38;;;;;;;9.40;6.80;;;17.90;87.70;;;;;;5004590;28;20042;-82
2021/10/19 07:47:04;;;;;;;8.40;7.10;;;17.90;87.70;;;;;;5005125;28;20050;-82
2021/10/19 07:49:31;;;;;;;10.85;6.65;;;17.90;87.70;;;;;;5021168;28;20304;-82
2021/10/19 07:51:57;;;;;;;9.10;5.97;;;17.90;87.70;;;;;;5006607;28;20049;-79
2021/10/19 07:54:23;;;;;;;8.43;6.45;;;17.90;87.70;;;;;;5004483;28;20528;-78
2021/10/19 07:56:49;;;;;;;7.78;6.43;;;17.80;87.50;;;;;;5019340;28;20038;-82
2021/10/19 07:59:15;;;;;;;8.15;5.53;;;17.90;87.60;;;;;;5019736;28;20048;-82
2021/10/19 08:01:42;;;;;;;8.18;7.00;;;17.90;87.60;;;;;;4997216;28;20579;-82
2021/10/19 08:04:08;;;;;;;11.65;9.18;;;17.90;88.10;;;;;;4996913;28;20074;-82
2021/10/19 08:06:37;;;;;;;12.75;9.18;;;17.90;87.50;;;;;;4999954;28;20030;-82
2021/10/19 08:09:03;;;;;;;10.50;7.22;;;17.90;87.50;;;;;;5014985;28;20030;-79
2021/10/19 08:11:30;;;;;;;10.43;8.68;;;17.90;87.40;;;;;;5023597;28;20065;-78
2021/10/19 08:13:58;;;;;;;10.68;8.38;;;18.00;87.60;;;;;;5005135;28;20481;-79
2021/10/19 08:16:25;;;;;;;9.57;8.60;;;18.00;87.50;;;;;;5000639;28;20034;-80
2021/10/19 08:18:52;;;;;;;10.80;9.18;;;18.00;87.50;;;;;;5003274;28;20026;-80
2021/10/19 08:21:20;;;;;;;10.43;8.75;;;18.00;87.40;;;;;;4998877;28;20041;-80
2021/10/19 08:23:47;;;;;;;10.48;9.38;;;18.00;87.40;;;;;;5000718;28;20035;-80
2021/10/19 08:26:13;;;;;;;13.85;10.18;;;18.10;87.50;;;;;;4989689;28;20038;-82
2021/10/19 08:28:47;;;;;;;13.02;9.75;;;18.00;87.20;;;;;;5004586;28;20068;-83
2021/10/19 08:31:15;;;;;;;12.98;10.77;;;18.10;87.40;;;;;;5018056;28;20061;-89
2021/10/19 08:33:43;;;;;;;13.57;11.48;;;18.10;87.30;;;;;;5005714;28;20070;-79
2021/10/19 08:36:11;;;;;;;16.83;13.77;;;18.10;87.20;;;;;;5004078;28;20035;-86
2021/10/19 08:38:37;;;;;;;19.00;14.23;;;18.10;87.20;;;;;;5004261;28;20120;-87
2021/10/19 08:41:03;;;;;;;18.67;15.35;;;18.10;87.30;;;;;;5002617;28;20045;-82
2021/10/19 08:43:29;;;;;;;20.27;15.63;;;18.20;87.60;;;;;;5011436;28;20030;-78
2021/10/19 08:45:55;;;;;;;22.95;16.10;;;18.30;87.80;;;;;;5021061;28;20089;-84
2021/10/19 08:48:21;;;;;;;16.85;14.20;;;18.30;87.80;;;;;;5019173;28;20134;-84
2021/10/19 08:50:47;;;;;;;18.15;14.45;;;18.30;87.80;;;;;;5020720;28;20030;-77
2021/10/19 08:53:13;;;;;;;23.33;16.40;;;18.40;87.90;;;;;;5020790;28;20386;-84
2021/10/19 08:55:39;;;;;;;19.30;14.93;;;18.40;87.70;;;;;;5015514;28;20048;-85
2021/10/19 08:58:11;;;;;;;21.70;17.75;;;18.50;87.80;;;;;;5017376;28;20046;-79
2021/10/19 09:00:40;;;;;;;20.45;17.75;;;18.60;87.80;;;;;;5002864;28;20424;-85
2021/10/19 09:03:06;;;;;;;21.65;16.25;;;18.70;87.80;;;;;;5001269;28;20122;-79
2021/10/19 09:05:32;;;;;;;22.50;15.65;;;18.70;87.60;;;;;;4999624;28;20037;-77
2021/10/19 09:08:03;;;;;;;21.20;17.75;;;18.80;87.50;;;;;;4998065;28;20094;-79
2021/10/19 09:10:37;;;;;;;21.25;17.00;;;18.90;87.50;;;;;;4998768;28;20041;-78
2021/10/19 09:13:22;;;;;;;21.25;17.42;;;18.90;87.30;;;;;;4998957;28;20030;-78
2021/10/19 09:15:50;;;;;;;22.63;17.20;;;19.00;87.40;;;;;;5003431;28;20034;-78
2021/10/19 09:18:21;;;;;;;23.15;18.85;;;19.00;87.20;;;;;;5001097;28;20053;-79
2021/10/19 09:20:53;;;;;;;21.90;17.40;;;19.10;87.20;;;;;;4993189;28;20033;-82
2021/10/19 09:23:21;;;;;;;22.58;18.52;;;19.10;87.10;;;;;;4993018;28;20057;-81
2021/10/19 09:25:51;;;;;;;21.05;18.85;;;19.10;86.90;;;;;;4990567;28;20034;-85
2021/10/19 09:28:34;;;;;;;23.20;18.60;;;19.00;86.70;;;;;;4993410;28;20033;-81
2021/10/19 09:31:00;;;;;;;;;;;19.10;86.80;;;;;;5006637;28;20042;-83
2021/10/19 09:33:26;;;;;;;22.85;19.10;;;19.10;86.80;;;;;;4997165;28;19921;-81
2021/10/19 09:35:55;;;;;;;19.70;17.70;;;19.10;86.60;;;;;;5001852;28;20125;-79
2021/10/19 09:38:22;;;;;;;23.80;18.75;;;19.10;86.60;;;;;;5002309;28;20034;-80
2021/10/19 09:40:52;;;;;;;21.33;18.30;;;19.10;86.50;;;;;;4998110;28;20053;-81
2021/10/19 09:43:20;;;;;;;28.88;20.42;;;19.10;86.50;;;;;;4996485;28;20402;-84
2021/10/19 09:45:51;;;;;;;21.65;19.20;;;19.10;86.40;;;;;;4982118;28;20034;-83
2021/10/19 09:48:27;;;;;;;21.75;18.50;;;19.10;86.40;;;;;;4989757;28;20057;-85
2021/10/19 09:50:55;;;;;;;23.13;18.17;;;19.10;86.40;;;;;;5006185;28;20036;-86
2021/10/19 09:53:23;;;;;;;22.60;20.20;;;19.10;86.20;;;;;;4990610;28;20066;-88
2021/10/19 09:55:51;;;;;;;23.55;20.55;;;19.20;86.40;;;;;;5003280;28;20026;-85
2021/10/19 09:58:23;;;;;;;20.95;18.52;;;19.20;86.20;;;;;;5019034;28;20049;-80
2021/10/19 10:00:49;;;;;;;20.42;18.17;;;19.30;86.30;;;;;;5013433;28;20034;-80
2021/10/19 10:03:16;;;;;;;26.25;21.30;;;19.40;86.30;;;;;;5012439;28;20105;-83
2021/10/19 10:05:42;;;;;;;24.70;20.70;;;19.40;86.10;;;;;;4998805;28;20362;-85
2021/10/19 10:08:17;;;;;;;23.67;20.80;;;19.50;86.10;;;;;;5001124;28;20225;-83
2021/10/19 10:10:43;;;;;;;24.33;21.15;;;19.60;86.00;;;;;;4991519;28;20501;-83
2021/10/19 10:13:16;;;;;;;23.02;20.40;;;19.70;86.00;;;;;;4989015;28;20029;-80
2021/10/19 10:15:42;;;;;;;24.60;21.92;;;19.70;85.70;;;;;;4971826;28;21009;-83
2021/10/19 10:18:10;;;;;;;27.17;21.35;;;19.70;85.60;;;;;;4988624;28;20043;-84
2021/10/19 10:20:47;;;;;;;23.52;20.73;;;19.80;85.70;;;;;;4990178;28;20054;-78
2021/10/19 10:23:20;;;;;;;24.10;21.63;;;19.90;85.70;;;;;;4996208;28;20033;-77
2021/10/19 10:25:53;;;;;;;22.17;19.98;;;20.00;85.70;;;;;;5007320;28;20034;-80
2021/10/19 10:28:34;;;;;;;25.13;21.15;;;20.20;85.60;;;;;;4999672;28;20034;-84
2021/10/19 10:31:02;;;;;;;25.27;22.63;;;20.40;85.60;;;;;;4989139;28;20030;-80
2021/10/19 10:33:36;;;;;;;26.70;22.58;;;20.60;85.50;;;;;;4986925;28;20069;-83
2021/10/19 10:36:08;;;;;;;23.90;21.50;;;20.70;85.20;;;;;;4986125;28;20091;-81
2021/10/19 10:38:35;;;;;;;24.67;22.23;;;20.70;84.90;;;;;;5003479;28;20038;-77
2021/10/19 10:41:10;;;;;;;24.70;22.00;;;20.80;84.90;;;;;;4988077;28;20085;-77
2021/10/19 10:43:36;;;;;;;24.85;22.23;;;20.80;84.50;;;;;;4991734;28;20027;-81
2021/10/19 10:46:08;;;;;;;25.45;22.67;;;20.80;84.40;;;;;;4987293;28;20061;-77
2021/10/19 10:48:38;;;;;;;27.35;22.60;;;20.80;84.30;;;;;;4987204;28;20502;-82
2021/10/19 10:51:06;;;;;;;25.40;22.80;;;20.80;84.20;;;;;;4987208;28;20030;-79
2021/10/19 10:53:36;;;;;;;29.45;23.05;;;20.90;84.20;;;;;;4970503;28;20044;-81
2021/10/19 10:56:04;;;;;;;24.17;21.52;;;20.90;84.00;;;;;;5001953;28;20022;-79
2021/10/19 10:58:38;;;;;;;23.42;21.10;;;20.80;83.80;;;;;;4998016;28;20073;-78
2021/10/19 11:01:23;;;;;;;25.83;23.15;;;20.80;83.60;;;;;;4988396;28;20026;-84
2021/10/19 11:04:10;;;;;;;27.45;22.85;;;20.80;83.50;;;;;;4998433;28;20269;-79
2021/10/19 11:06:38;;;;;;;25.60;22.85;;;20.70;83.40;;;;;;4994676;28;20141;-79
2021/10/19 11:09:07;;;;;;;25.20;21.98;;;20.70;83.30;;;;;;4999848;28;20492;-80
2021/10/19 11:11:39;;;;;;;26.17;22.98;;;20.60;83.10;;;;;;4991812;28;20061;-79
2021/10/19 11:14:06;;;;;;;28.05;23.27;;;20.60;83.00;;;;;;4991398;28;20035;-79
2021/10/19 11:16:46;;;;;;;27.10;22.73;;;20.60;83.10;;;;;;4991177;28;20030;-83
2021/10/19 11:19:14;;;;;;;26.58;21.60;;;20.60;83.00;;;;;;4989862;28;20046;-83
2021/10/19 11:21:40;;;;;;;26.17;22.77;;;20.50;82.90;;;;;;4991046;28;20133;-82
2021/10/19 11:24:06;;;;;;;24.88;22.25;;;20.50;82.80;;;;;;4993227;28;20042;-82
2021/10/19 11:26:34;;;;;;;25.98;23.23;;;20.50;82.80;;;;;;5008818;28;20088;-78
2021/10/19 11:29:01;;;;;;;29.27;23.48;;;20.50;82.90;;;;;;4997535;28;20080;-79
2021/10/19 11:31:30;;;;;;;27.67;23.88;;;20.40;82.80;;;;;;4990346;28;20034;-78
2021/10/19 11:33:56;;;;;;;36.55;26.85;;;20.40;83.00;;;;;;4973018;28;20378;-79
2021/10/19 11:36:23;;;;;;;46.65;29.13;;;20.50;83.40;;;;;;4990005;28;20259;-80
2021/10/19 11:38:52;;;;;;;39.03;28.85;;;20.50;83.80;;;;;;4972819;28;20654;-79
2021/10/19 11:41:22;;;;;;;34.22;27.70;;;20.50;84.20;;;;;;4990667;28;20089;-82
2021/10/19 11:43:54;;;;;;;29.77;24.15;;;20.60;84.50;;;;;;4989252;28;20352;-81
2021/10/19 11:46:21;;;;;;;;;;;20.60;84.40;;;;;;4991102;28;20037;-79
2021/10/19 11:48:49;;;;;;;31.88;24.67;;;20.60;84.40;;;;;;4989992;28;20126;-80
2021/10/19 11:51:18;;;;;;;28.85;25.52;;;20.60;84.30;;;;;;4990093;28;20034;-80
2021/10/19 11:53:48;;;;;;;29.77;23.48;;;20.50;84.10;;;;;;4989027;28;20081;-80
2021/10/19 11:56:16;;;;;;;29.05;24.38;;;20.60;84.30;;;;;;5006037;28;20087;-79
2021/10/19 11:59:00;;;;;;;26.58;23.60;;;20.60;84.20;;;;;;5000249;28;20030;-81
2021/10/19 12:01:26;;;;;;;28.38;24.95;;;20.50;83.80;;;;;;4990316;28;20062;-81
2021/10/19 12:04:01;;;;;;;25.55;22.92;;;20.60;84.00;;;;;;4988844;28;20117;-81
2021/10/19 12:06:30;;;;;;;27.40;21.10;;;20.60;83.70;;;;;;5004679;28;20030;-79
2021/10/19 12:09:08;;;;;;;27.73;24.00;;;20.60;83.50;;;;;;4988488;28;20197;-81
2021/10/19 12:11:34;;;;;;;24.83;22.02;;;20.60;83.30;;;;;;4973437;28;20602;-81
2021/10/19 12:14:02;;;;;;;26.77;23.52;;;20.60;83.20;;;;;;4990151;28;20499;-80
2021/10/19 12:16:32;;;;;;;29.42;24.83;;;20.60;83.10;;;;;;4988743;28;20395;-81
2021/10/19 12:19:01;;;;;;;30.27;24.35;;;20.60;83.00;;;;;;4988802;28;20034;-81
2021/10/19 12:21:28;;;;;;;26.92;22.25;;;20.60;83.00;;;;;;4989963;28;20042;-80
2021/10/19 12:23:56;;;;;;;30.17;23.13;;;20.60;82.90;;;;;;4988391;28;20113;-81
2021/10/19 12:26:24;;;;;;;25.55;22.88;;;20.60;82.90;;;;;;5006445;28;20499;-80
2021/10/19 12:28:52;;;;;;;25.67;22.98;;;20.60;82.80;;;;;;4998641;28;20042;-79
2021/10/19 12:31:20;;;;;;;26.55;23.80;;;20.60;82.70;;;;;;4990035;28;20478;-79
2021/10/19 12:34:03;;;;;;;25.48;22.60;;;20.60;82.60;;;;;;5002103;28;20026;-81
2021/10/19 12:36:39;;;;;;;26.38;21.55;;;20.60;82.60;;;;;;5009266;28;20130;-80
2021/10/19 12:39:16;;;;;;;25.70;22.20;;;20.50;82.40;;;;;;4996124;28;20026;-79
2021/10/19 12:41:43;;;;;;;24.42;21.27;;;20.50;82.40;;;;;;4990079;28;20034;-78